createdAt,value
2018-05-12T00:01:05.708Z,9.60
2018-05-12T00:03:37.732Z,9.50
2018-05-12T00:06:05.780Z,9.50
2018-05-12T00:08:33.840Z,9.40
2018-05-12T00:11:05.580Z,9.40
2018-05-12T00:13:38.492Z,9.40
2018-05-12T00:16:10.176Z,9.50
2018-05-12T00:18:38.226Z,9.70
2018-05-12T00:21:11.960Z,9.70
2018-05-12T00:23:40.941Z,9.70
2018-05-12T00:26:09.980Z,9.60
2018-05-12T00:28:38.919Z,9.60
2018-05-12T00:31:07.831Z,9.50
2018-05-12T00:33:37.632Z,9.50
2018-05-12T00:36:06.572Z,9.50
2018-05-12T00:38:34.600Z,9.50
2018-05-12T00:41:17.624Z,9.40
2018-05-12T00:43:45.641Z,9.30
2018-05-12T00:46:14.564Z,9.20
2018-05-12T00:48:42.596Z,9.20
2018-05-12T00:51:11.521Z,9.30
2018-05-12T00:53:43.153Z,9.30
2018-05-12T00:56:11.160Z,9.40
2018-05-12T00:58:41.067Z,9.30
2018-05-12T01:01:09.060Z,9.20
2018-05-12T01:03:42.113Z,9.20
2018-05-12T01:06:15.003Z,9.20
2018-05-12T01:08:47.904Z,9.20
2018-05-12T01:11:16.893Z,9.20
2018-05-12T01:13:45.876Z,9.10
2018-05-12T01:16:13.892Z,9.10
2018-05-12T01:18:42.844Z,9.10
2018-05-12T01:21:11.852Z,9.00
2018-05-12T01:23:46.823Z,8.90
2018-05-12T01:26:15.776Z,8.80
2018-05-12T01:28:45.480Z,8.70
2018-05-12T01:31:20.644Z,8.70
2018-05-12T01:33:57.136Z,8.70
2018-05-12T01:36:25.944Z,8.70
2018-05-12T01:39:05.884Z,8.70
2018-05-12T01:41:38.094Z,8.70
2018-05-12T01:44:06.879Z,8.60
2018-05-12T01:46:36.696Z,8.60
2018-05-12T01:49:06.488Z,8.60
2018-05-12T01:51:36.504Z,8.60
2018-05-12T01:54:14.699Z,8.50
2018-05-12T01:56:42.731Z,8.50
2018-05-12T01:59:22.617Z,8.50
2018-05-12T02:01:53.659Z,8.50
2018-05-12T02:04:21.708Z,8.50
2018-05-12T02:06:51.656Z,8.50
2018-05-12T02:09:24.287Z,8.50
2018-05-12T02:11:56.695Z,8.50
2018-05-12T02:14:24.895Z,8.50
2018-05-12T02:16:55.588Z,8.30
2018-05-12T02:19:26.311Z,8.20
2018-05-12T02:21:54.319Z,8.20
2018-05-12T02:24:24.012Z,8.30
2018-05-12T02:26:55.867Z,8.30
2018-05-12T02:29:31.324Z,8.30
2018-05-12T02:32:10.435Z,8.30
2018-05-12T02:34:45.529Z,8.30
2018-05-12T02:37:14.488Z,8.30
2018-05-12T02:39:43.464Z,8.30
2018-05-12T02:42:13.475Z,8.40
2018-05-12T02:44:43.528Z,8.50
2018-05-12T02:47:24.020Z,8.40
2018-05-12T02:49:56.796Z,8.30
2018-05-12T02:52:25.704Z,8.30
2018-05-12T02:55:00.844Z,8.20
2018-05-12T02:57:37.415Z,8.20
2018-05-12T03:00:23.999Z,8.30
2018-05-12T03:02:58.208Z,8.40
2018-05-12T03:05:29.315Z,8.40
2018-05-12T03:07:57.337Z,8.40
2018-05-12T03:10:26.112Z,8.20
2018-05-12T03:12:55.032Z,8.20
2018-05-12T03:15:26.859Z,8.10
2018-05-12T03:18:05.359Z,8.00
2018-05-12T03:20:35.068Z,7.80
2018-05-12T03:23:09.351Z,7.80
2018-05-12T03:25:42.335Z,7.70
2018-05-12T03:28:12.291Z,7.70
2018-05-12T03:30:53.069Z,7.70
2018-05-12T03:33:37.571Z,7.70
2018-05-12T03:36:06.519Z,7.70
2018-05-12T03:38:34.559Z,7.70
2018-05-12T03:41:16.279Z,7.70
2018-05-12T03:43:44.291Z,7.70
2018-05-12T03:46:30.635Z,7.70
2018-05-12T03:49:09.891Z,7.70
2018-05-12T03:51:42.614Z,7.80
2018-05-12T03:54:11.532Z,7.80
2018-05-12T03:56:52.772Z,8.00
2018-05-12T03:59:41.891Z,8.00
2018-05-12T04:02:10.831Z,8.10
2018-05-12T04:04:51.722Z,8.20
2018-05-12T04:10:43.036Z,8.30
2018-05-12T04:13:11.055Z,8.40
2018-05-12T04:15:40.007Z,8.60
2018-05-12T04:18:16.130Z,8.60
2018-05-12T04:20:48.195Z,8.60
2018-05-12T04:23:19.883Z,8.60
2018-05-12T04:25:51.859Z,8.60
2018-05-12T04:28:24.518Z,8.60
2018-05-12T04:30:56.299Z,8.60
2018-05-12T04:33:27.962Z,8.70
2018-05-12T04:35:56.743Z,8.90
2018-05-12T04:38:28.679Z,8.90
2018-05-12T04:40:57.599Z,8.90
2018-05-12T04:43:45.150Z,9.00
2018-05-12T04:46:16.860Z,9.00
2018-05-12T04:48:44.889Z,9.10
2018-05-12T04:51:14.847Z,9.20
2018-05-12T04:53:46.007Z,9.40
2018-05-12T04:56:14.791Z,9.60
2018-05-12T04:58:42.826Z,9.60
2018-05-12T05:01:17.236Z,9.80
2018-05-12T05:03:59.610Z,10.00
2018-05-12T05:06:29.599Z,10.20
2018-05-12T05:09:09.051Z,10.50
2018-05-12T05:11:50.759Z,10.40
2018-05-12T05:14:28.875Z,10.80
2018-05-12T05:16:58.847Z,10.80
2018-05-12T05:19:35.307Z,11.10
2018-05-12T05:22:09.932Z,11.10
2018-05-12T05:27:45.934Z,11.50
2018-05-12T05:30:14.767Z,12.00
2018-05-12T05:35:56.763Z,12.40
2018-05-12T05:41:23.149Z,13.30
2018-05-12T05:44:08.312Z,13.30
2018-05-12T05:49:34.343Z,14.30
2018-05-12T05:54:58.667Z,15.00
2018-05-12T05:57:40.820Z,14.90
2018-05-12T06:03:25.935Z,15.80
2018-05-12T06:06:10.595Z,16.40
2018-05-12T06:08:38.623Z,16.30
2018-05-12T06:11:28.839Z,16.60
2018-05-12T06:14:00.477Z,16.60
2018-05-12T06:16:34.190Z,17.00
2018-05-12T06:19:02.234Z,17.40
2018-05-12T06:21:31.018Z,18.10
2018-05-12T06:24:19.082Z,18.40
2018-05-12T06:29:54.210Z,18.70
2018-05-12T06:32:23.010Z,18.90
2018-05-12T06:34:51.806Z,19.00
2018-05-12T06:37:20.775Z,18.90
2018-05-12T06:39:51.831Z,19.10
2018-05-12T06:42:22.658Z,19.50
2018-05-12T06:44:56.918Z,19.50
2018-05-12T06:47:24.958Z,19.90
2018-05-12T06:50:01.551Z,20.70
2018-05-12T06:52:34.746Z,20.60
2018-05-12T06:55:10.503Z,21.00
2018-05-12T06:57:40.414Z,21.30
2018-05-12T07:00:14.659Z,21.90
2018-05-12T07:02:42.702Z,21.80
2018-05-12T07:05:10.734Z,21.90
2018-05-12T07:07:39.518Z,22.00
2018-05-12T07:10:08.567Z,22.00
2018-05-12T07:12:40.462Z,22.00
2018-05-12T07:15:11.686Z,22.00
2018-05-12T07:17:41.874Z,22.10
2018-05-12T07:20:11.838Z,22.10
2018-05-12T07:22:40.798Z,22.10
2018-05-12T07:25:08.806Z,22.10
2018-05-12T07:27:37.583Z,22.60
2018-05-12T07:30:07.594Z,22.60
2018-05-12T07:32:46.579Z,22.90
2018-05-12T07:35:14.618Z,23.30
2018-05-12T07:37:44.296Z,24.30
2018-05-12T07:40:12.314Z,24.30
2018-05-12T07:42:40.322Z,24.40
2018-05-12T07:45:11.666Z,24.50
2018-05-12T07:47:39.714Z,24.80
2018-05-12T07:50:11.198Z,25.50
2018-05-12T07:52:39.222Z,25.90
2018-05-12T07:55:07.242Z,26.30
2018-05-12T07:57:37.642Z,26.70
2018-05-12T08:00:08.778Z,26.70
2018-05-12T08:02:40.000Z,26.90
2018-05-12T08:05:08.326Z,26.90
2018-05-12T08:07:37.350Z,27.20
2018-05-12T08:10:08.054Z,28.20
2018-05-12T08:12:40.695Z,28.20
2018-05-12T08:15:14.452Z,27.90
2018-05-12T08:17:50.805Z,27.70
2018-05-12T08:20:26.505Z,27.60
2018-05-12T08:22:56.466Z,27.60
2018-05-12T08:25:24.489Z,28.00
2018-05-12T08:27:52.506Z,28.60
2018-05-12T08:30:20.525Z,29.10
2018-05-12T08:32:49.469Z,29.40
2018-05-12T08:35:17.482Z,29.20
2018-05-12T08:37:49.929Z,29.40
2018-05-12T08:40:19.780Z,29.40
2018-05-12T08:43:04.209Z,29.30
2018-05-12T08:45:32.999Z,30.80
2018-05-12T08:48:06.976Z,31.00
2018-05-12T08:50:38.113Z,31.00
2018-05-12T08:53:07.866Z,31.10
2018-05-12T08:55:35.882Z,30.90
2018-05-12T08:58:17.734Z,30.60
2018-05-12T09:00:52.765Z,31.30
2018-05-12T09:03:22.765Z,32.50
2018-05-12T09:05:55.729Z,32.30
2018-05-12T09:08:28.009Z,31.80
2018-05-12T09:11:02.834Z,31.70
2018-05-12T09:13:30.885Z,31.00
2018-05-12T09:16:05.489Z,30.90
2018-05-12T09:18:35.449Z,30.70
2018-05-12T09:21:04.238Z,31.00
2018-05-12T09:23:36.122Z,30.30
2018-05-12T09:26:05.065Z,30.30
2018-05-12T09:28:33.077Z,30.20
2018-05-12T09:31:01.102Z,31.40
2018-05-12T09:33:29.121Z,32.10
2018-05-12T09:36:09.201Z,33.10
2018-05-12T09:38:37.213Z,33.70
2018-05-12T09:41:07.198Z,32.30
2018-05-12T09:43:38.242Z,30.50
2018-05-12T09:46:16.833Z,30.10
2018-05-12T09:48:45.609Z,30.90
2018-05-12T09:51:14.757Z,30.80
2018-05-12T09:53:42.793Z,31.20
2018-05-12T09:56:17.830Z,31.60
2018-05-12T09:58:57.170Z,30.20
2018-05-12T10:01:25.189Z,28.40
2018-05-12T10:03:57.321Z,30.20
2018-05-12T10:06:38.421Z,30.20
2018-05-12T10:09:09.125Z,33.00
2018-05-12T10:11:37.140Z,33.00
2018-05-12T10:14:06.805Z,33.40
2018-05-12T10:16:34.810Z,33.40
2018-05-12T10:19:05.505Z,31.40
2018-05-12T10:21:33.514Z,31.30
2018-05-12T10:24:02.297Z,31.20
2018-05-12T10:26:31.070Z,31.90
2018-05-12T10:29:01.055Z,31.80
2018-05-12T10:31:29.077Z,30.80
2018-05-12T10:33:59.745Z,29.20
2018-05-12T10:36:31.121Z,29.10
2018-05-12T10:38:59.238Z,28.90
2018-05-12T10:41:27.909Z,31.70
2018-05-12T10:44:01.673Z,31.70
2018-05-12T10:46:30.681Z,33.10
2018-05-12T10:51:55.901Z,33.80
2018-05-12T10:54:23.918Z,33.00
2018-05-12T10:56:56.929Z,33.30
2018-05-12T10:59:29.717Z,34.00
2018-05-12T11:01:59.692Z,34.30
2018-05-12T11:04:44.818Z,34.50
2018-05-12T11:07:13.537Z,37.00
2018-05-12T11:09:45.930Z,36.20
2018-05-12T11:12:14.786Z,36.20
2018-05-12T11:14:42.790Z,35.30
2018-05-12T11:17:10.804Z,35.30
2018-05-12T11:19:50.405Z,35.30
2018-05-12T11:22:20.344Z,37.00
2018-05-12T11:24:48.381Z,37.90
2018-05-12T11:27:16.362Z,34.80
2018-05-12T11:29:54.586Z,32.30
2018-05-12T11:32:26.489Z,30.20
2018-05-12T11:34:58.241Z,30.20
2018-05-12T11:37:30.881Z,28.90
2018-05-12T11:40:00.821Z,28.50
2018-05-12T11:42:28.849Z,28.30
2018-05-12T11:44:58.780Z,28.40
2018-05-12T11:47:27.557Z,33.50
2018-05-12T11:49:57.341Z,33.40
2018-05-12T11:52:26.125Z,38.70
2018-05-12T11:54:55.065Z,38.60
2018-05-12T11:57:24.065Z,39.60
2018-05-12T11:59:52.073Z,40.20
2018-05-12T12:02:25.183Z,38.50
2018-05-12T12:04:54.121Z,38.40
2018-05-12T12:07:23.093Z,36.80
2018-05-12T12:09:56.581Z,34.40
2018-05-12T12:12:28.361Z,32.10
2018-05-12T12:14:58.389Z,31.00
2018-05-12T12:17:31.957Z,30.40
2018-05-12T12:20:01.005Z,31.50
2018-05-12T12:22:30.925Z,32.50
2018-05-12T12:24:59.740Z,38.30
2018-05-12T12:27:29.709Z,38.20
2018-05-12T12:30:01.924Z,37.10
2018-05-12T12:32:29.973Z,35.20
2018-05-12T12:34:58.777Z,34.80
2018-05-12T12:37:27.729Z,34.70
2018-05-12T12:39:57.453Z,33.20
2018-05-12T12:42:27.216Z,34.10
2018-05-12T12:44:58.622Z,34.10
2018-05-12T12:47:38.891Z,33.90
2018-05-12T12:50:06.904Z,32.80
2018-05-12T12:52:34.916Z,30.90
2018-05-12T12:55:07.560Z,30.50
2018-05-12T12:57:41.358Z,30.50
2018-05-12T13:00:10.353Z,29.60
2018-05-12T13:02:39.341Z,31.10
2018-05-12T13:05:11.213Z,34.00
2018-05-12T13:07:43.069Z,35.80
2018-05-12T13:10:22.368Z,37.90
2018-05-12T13:12:56.089Z,38.30
2018-05-12T13:15:28.915Z,37.20
2018-05-12T13:17:56.908Z,38.00
2018-05-12T13:20:28.316Z,37.10
2018-05-12T13:22:59.976Z,36.50
2018-05-12T13:25:28.024Z,36.20
2018-05-12T13:27:57.797Z,37.80
2018-05-12T13:30:29.784Z,39.40
2018-05-12T13:32:59.712Z,41.60
2018-05-12T13:35:31.592Z,43.70
2018-05-12T13:37:59.644Z,42.70
2018-05-12T13:40:27.688Z,38.00
2018-05-12T13:42:57.692Z,34.60
2018-05-12T13:45:25.700Z,33.70
2018-05-12T13:47:54.622Z,34.10
2018-05-12T13:50:24.417Z,35.40
2018-05-12T13:53:07.580Z,35.30
2018-05-12T13:55:39.823Z,36.10
2018-05-12T13:58:28.304Z,36.10
2018-05-12T14:01:14.513Z,37.20
2018-05-12T14:04:03.978Z,40.60
2018-05-12T14:06:32.012Z,40.50
2018-05-12T14:09:02.700Z,40.50
2018-05-12T14:11:43.136Z,40.50
2018-05-12T14:14:17.088Z,38.30
2018-05-12T14:16:55.802Z,34.20
2018-05-12T14:19:25.828Z,31.30
2018-05-12T14:21:58.537Z,29.30
2018-05-12T14:24:29.220Z,28.10
2018-05-12T14:27:01.840Z,28.00
2018-05-12T14:29:35.896Z,28.20
2018-05-12T14:32:23.617Z,28.20
2018-05-12T14:35:01.945Z,28.00
2018-05-12T14:37:35.917Z,28.10
2018-05-12T14:40:03.925Z,28.20
2018-05-12T14:42:32.924Z,28.20
2018-05-12T14:45:08.584Z,28.60
2018-05-12T14:47:36.595Z,30.30
2018-05-12T14:50:24.108Z,32.60
2018-05-12T14:53:07.844Z,34.90
2018-05-12T14:55:35.872Z,34.80
2018-05-12T14:58:09.680Z,37.70
2018-05-12T15:00:39.615Z,38.90
2018-05-12T15:03:13.233Z,38.20
2018-05-12T15:05:41.252Z,35.10
2018-05-12T15:08:09.252Z,30.70
2018-05-12T15:10:40.797Z,28.30
2018-05-12T15:13:12.268Z,26.80
2018-05-12T15:15:44.241Z,26.20
2018-05-12T15:18:18.888Z,25.90
2018-05-12T15:20:48.320Z,25.90
2018-05-12T15:23:16.804Z,25.80
2018-05-12T15:26:04.104Z,25.60
2018-05-12T15:28:33.016Z,25.30
2018-05-12T15:31:11.242Z,25.20
2018-05-12T15:33:40.164Z,25.20
2018-05-12T15:36:11.409Z,25.40
2018-05-12T15:38:39.372Z,26.60
2018-05-12T15:41:08.324Z,28.50
2018-05-12T15:43:41.018Z,30.00
2018-05-12T15:49:04.476Z,31.10
2018-05-12T15:51:39.400Z,30.90
2018-05-12T15:54:07.403Z,31.20
2018-05-12T15:59:49.064Z,31.20
2018-05-12T16:02:24.308Z,31.10
2018-05-12T16:08:07.060Z,28.80
2018-05-12T16:10:45.466Z,29.40
2018-05-12T16:13:23.316Z,29.40
2018-05-12T16:15:58.628Z,28.10
2018-05-12T16:18:26.624Z,28.10
2018-05-12T16:21:00.296Z,28.10
2018-05-12T16:23:31.640Z,28.00
2018-05-12T16:26:03.108Z,27.20
2018-05-12T16:28:39.381Z,26.80
2018-05-12T16:31:20.861Z,27.00
2018-05-12T16:36:50.563Z,26.10
2018-05-12T16:39:18.584Z,26.10
2018-05-12T16:41:55.092Z,25.90
2018-05-12T16:44:44.868Z,25.90
2018-05-12T16:47:14.860Z,26.00
2018-05-12T16:49:55.332Z,25.60
2018-05-12T16:55:17.677Z,25.50
2018-05-12T17:00:43.435Z,25.20
2018-05-12T17:03:11.547Z,25.20
2018-05-12T17:05:40.460Z,25.30
2018-05-12T17:08:15.136Z,25.40
2018-05-12T17:19:30.639Z,24.70
2018-05-12T17:22:10.515Z,24.60
2018-05-12T17:30:26.899Z,24.20
2018-05-12T17:36:05.303Z,24.10
2018-05-12T17:41:32.887Z,23.80
2018-05-12T17:44:00.963Z,23.60
2018-05-12T17:46:37.371Z,23.40
2018-05-12T17:57:47.228Z,22.80
2018-05-12T18:00:31.927Z,22.60
2018-05-12T18:02:59.947Z,22.50
2018-05-12T18:05:28.898Z,22.40
2018-05-12T18:07:58.887Z,22.20
2018-05-12T18:10:33.551Z,21.70
2018-05-12T18:13:01.568Z,21.60
2018-05-12T18:15:35.883Z,21.30
2018-05-12T18:18:17.414Z,21.00
2018-05-12T18:20:55.351Z,20.80
2018-05-12T18:23:33.195Z,20.60
2018-05-12T18:26:03.291Z,20.40
2018-05-12T18:28:35.255Z,20.40
2018-05-12T18:31:24.872Z,20.20
2018-05-12T18:33:52.903Z,20.10
2018-05-12T18:36:21.091Z,20.00
2018-05-12T18:38:49.271Z,19.80
2018-05-12T18:41:18.072Z,19.60
2018-05-12T18:49:34.578Z,19.50
2018-05-12T18:52:08.824Z,19.50
2018-05-12T18:54:50.315Z,19.40
2018-05-12T18:57:23.677Z,19.30
2018-05-12T19:00:16.062Z,19.30
2018-05-12T19:02:53.029Z,19.30
2018-05-12T19:05:21.979Z,19.20
2018-05-12T19:07:50.980Z,19.10
2018-05-12T19:10:21.002Z,19.20
2018-05-12T19:12:53.506Z,19.10
2018-05-12T19:15:25.208Z,19.10
2018-05-12T19:17:54.346Z,19.00
2018-05-12T19:20:23.126Z,18.90
2018-05-12T19:22:51.135Z,18.90
2018-05-12T19:25:19.155Z,18.80
2018-05-12T19:27:51.834Z,18.80
2018-05-12T19:30:23.698Z,18.80
2018-05-12T19:32:56.455Z,18.70
2018-05-12T19:35:24.510Z,18.70
2018-05-12T19:37:52.551Z,18.60
2018-05-12T19:40:21.486Z,18.60
2018-05-12T19:42:51.498Z,18.60
2018-05-12T19:45:20.423Z,18.60
2018-05-12T19:47:52.003Z,18.50
2018-05-12T19:50:27.983Z,18.40
2018-05-12T19:52:56.990Z,18.40
2018-05-12T19:55:27.015Z,18.40
2018-05-12T19:58:00.150Z,18.40
2018-05-12T20:00:31.874Z,18.40
2018-05-12T20:02:59.905Z,18.40
2018-05-12T20:05:28.922Z,18.40
2018-05-12T20:07:58.839Z,18.40
2018-05-12T20:10:26.854Z,18.40
2018-05-12T20:12:55.778Z,18.40
2018-05-12T20:15:29.567Z,18.30
2018-05-12T20:17:57.961Z,18.20
2018-05-12T20:20:31.162Z,18.20
2018-05-12T20:23:01.192Z,18.20
2018-05-12T20:25:31.102Z,18.10
2018-05-12T20:27:59.126Z,18.10
2018-05-12T20:30:28.802Z,18.20
2018-05-12T20:32:58.578Z,18.20
2018-05-12T20:35:28.611Z,18.20
2018-05-12T20:37:56.634Z,18.20
2018-05-12T20:40:29.274Z,18.20
2018-05-12T20:43:00.690Z,18.20
2018-05-12T20:45:34.654Z,18.20
2018-05-12T20:48:06.010Z,18.20
2018-05-12T20:50:35.993Z,18.20
2018-05-12T20:53:05.910Z,18.20
2018-05-12T20:55:34.694Z,18.10
2018-05-12T20:58:06.030Z,18.10
2018-05-12T21:00:34.151Z,18.10
2018-05-12T21:03:03.099Z,17.90
2018-05-12T21:05:33.094Z,17.90
2018-05-12T21:08:02.014Z,17.90
2018-05-12T21:10:34.354Z,17.70
2018-05-12T21:13:02.451Z,17.70
2018-05-12T21:15:31.414Z,17.70
2018-05-12T21:18:01.546Z,17.50
2018-05-12T21:20:32.573Z,17.60
2018-05-12T21:23:01.621Z,17.50
2018-05-12T21:25:29.648Z,17.50
2018-05-12T21:27:59.010Z,17.40
2018-05-12T21:30:27.078Z,17.50
2018-05-12T21:32:56.102Z,17.50
2018-05-12T21:35:25.014Z,17.40
2018-05-12T21:37:57.339Z,17.40
2018-05-12T21:40:25.291Z,17.40
2018-05-12T21:42:53.318Z,17.40
2018-05-12T21:45:31.485Z,17.40
2018-05-12T21:47:59.517Z,17.40
2018-05-12T21:50:32.650Z,17.20
2018-05-12T21:53:00.781Z,17.20
2018-05-12T21:55:29.565Z,17.20
2018-05-12T21:57:58.357Z,17.10
2018-05-12T22:00:28.042Z,17.10
2018-05-12T22:03:03.622Z,17.10
2018-05-12T22:05:33.830Z,17.00
2018-05-12T22:08:06.728Z,17.00
2018-05-12T22:10:34.714Z,17.00
2018-05-12T22:13:03.507Z,16.90
2018-05-12T22:15:32.441Z,16.90
2018-05-12T22:18:00.460Z,17.00
2018-05-12T22:20:30.462Z,16.90
2018-05-12T22:23:06.666Z,17.00
2018-05-12T22:25:35.670Z,17.00
2018-05-12T22:28:07.598Z,17.00
2018-05-12T22:30:37.553Z,17.00
2018-05-12T22:33:05.577Z,17.00
2018-05-12T22:35:34.621Z,17.00
2018-05-12T22:38:02.642Z,16.90
2018-05-12T22:40:32.570Z,16.90
2018-05-12T22:43:01.594Z,16.90
2018-05-12T22:45:29.617Z,16.80
2018-05-12T22:48:04.042Z,16.80
2018-05-12T22:50:32.053Z,16.80
2018-05-12T22:53:01.025Z,16.70
2018-05-12T22:55:29.062Z,16.70
2018-05-12T22:57:58.001Z,16.60
2018-05-12T23:00:28.966Z,16.60
2018-05-12T23:02:57.857Z,16.60
2018-05-12T23:05:30.781Z,16.70
2018-05-12T23:08:00.701Z,16.60
2018-05-12T23:10:28.769Z,16.60
2018-05-12T23:12:57.510Z,16.50
2018-05-12T23:15:26.306Z,16.60
2018-05-12T23:17:55.106Z,16.60
2018-05-12T23:20:25.021Z,16.60
2018-05-12T23:23:02.837Z,16.70
2018-05-12T23:25:35.093Z,16.70
2018-05-12T23:28:03.133Z,16.70
2018-05-12T23:30:31.140Z,16.70
2018-05-12T23:32:59.429Z,16.60
2018-05-12T23:35:28.317Z,16.60
2018-05-12T23:38:01.837Z,16.40
2018-05-12T23:40:38.301Z,16.40
2018-05-12T23:43:07.289Z,16.40
2018-05-12T23:45:35.397Z,16.40
2018-05-12T23:48:06.136Z,16.30
2018-05-12T23:50:35.037Z,16.30
2018-05-12T23:53:03.973Z,16.20
2018-05-12T23:55:32.981Z,16.20
2018-05-12T23:58:07.374Z,16.20
